sensor_id;sensor_type;location;lat;lon;timestamp;temperature;humidity
11855;DHT22;5987;53.140;8.904;2024-02-15T00:01:09;12.20;99.90
11855;DHT22;5987;53.140;8.904;2024-02-15T00:04:13;12.20;99.90
11855;DHT22;5987;53.140;8.904;2024-02-15T00:07:19;12.20;99.90
11855;DHT22;5987;53.140;8.904;2024-02-15T00:10:24;12.20;99.90
11855;DHT22;5987;53.140;8.904;2024-02-15T00:13:30;12.20;99.90
11855;DHT22;5987;53.140;8.904;2024-02-15T00:16:35;12.20;99.90
11855;DHT22;5987;53.140;8.904;2024-02-15T00:19:39;12.20;99.90
11855;DHT22;5987;53.140;8.904;2024-02-15T00:22:44;12.20;99.90
11855;DHT22;5987;53.140;8.904;2024-02-15T00:25:50;12.20;99.90
11855;DHT22;5987;53.140;8.904;2024-02-15T00:28:55;12.30;99.90
11855;DHT22;5987;53.140;8.904;2024-02-15T00:31:58;12.30;99.90
11855;DHT22;5987;53.140;8.904;2024-02-15T00:35:03;12.30;99.90
11855;DHT22;5987;53.140;8.904;2024-02-15T00:38:10;12.30;99.90
11855;DHT22;5987;53.140;8.904;2024-02-15T00:41:14;12.30;99.90
11855;DHT22;5987;53.140;8.904;2024-02-15T00:44:19;12.30;99.90
11855;DHT22;5987;53.140;8.904;2024-02-15T00:47:23;12.30;99.90
11855;DHT22;5987;53.140;8.904;2024-02-15T00:50:27;12.30;99.90
11855;DHT22;5987;53.140;8.904;2024-02-15T00:53:31;12.30;99.90
11855;DHT22;5987;53.140;8.904;2024-02-15T00:56:35;12.30;99.90
11855;DHT22;5987;53.140;8.904;2024-02-15T00:59:40;12.30;99.90
11855;DHT22;5987;53.140;8.904;2024-02-15T01:02:44;12.30;99.90
11855;DHT22;5987;53.140;8.904;2024-02-15T01:05:48;12.40;99.90
11855;DHT22;5987;53.140;8.904;2024-02-15T01:08:51;12.30;99.90
11855;DHT22;5987;53.140;8.904;2024-02-15T01:11:55;12.40;99.90
11855;DHT22;5987;53.140;8.904;2024-02-15T01:15:01;12.40;99.90
11855;DHT22;5987;53.140;8.904;2024-02-15T01:18:05;12.30;99.90
11855;DHT22;5987;53.140;8.904;2024-02-15T01:21:09;12.30;99.90
11855;DHT22;5987;53.140;8.904;2024-02-15T01:24:13;12.40;99.90
11855;DHT22;5987;53.140;8.904;2024-02-15T01:27:17;12.30;99.90
11855;DHT22;5987;53.140;8.904;2024-02-15T01:30:22;12.30;99.90
11855;DHT22;5987;53.140;8.904;2024-02-15T01:33:26;12.40;99.90
11855;DHT22;5987;53.140;8.904;2024-02-15T01:36:30;12.40;99.90
11855;DHT22;5987;53.140;8.904;2024-02-15T01:39:34;12.40;99.90
11855;DHT22;5987;53.140;8.904;2024-02-15T01:42:38;12.40;99.90
11855;DHT22;5987;53.140;8.904;2024-02-15T01:45:43;12.40;99.90
11855;DHT22;5987;53.140;8.904;2024-02-15T01:48:49;12.40;99.90
11855;DHT22;5987;53.140;8.904;2024-02-15T01:51:54;12.40;99.90
11855;DHT22;5987;53.140;8.904;2024-02-15T01:55:01;12.40;99.90
11855;DHT22;5987;53.140;8.904;2024-02-15T01:58:10;12.40;99.90
11855;DHT22;5987;53.140;8.904;2024-02-15T02:01:16;12.40;99.90
11855;DHT22;5987;53.140;8.904;2024-02-15T02:04:20;12.40;99.90
11855;DHT22;5987;53.140;8.904;2024-02-15T02:07:24;12.40;99.90
11855;DHT22;5987;53.140;8.904;2024-02-15T02:10:28;12.40;99.90
11855;DHT22;5987;53.140;8.904;2024-02-15T02:13:35;12.40;99.90
11855;DHT22;5987;53.140;8.904;2024-02-15T02:16:40;12.40;99.90
11855;DHT22;5987;53.140;8.904;2024-02-15T02:19:44;12.40;99.90
11855;DHT22;5987;53.140;8.904;2024-02-15T02:22:51;12.40;99.90
11855;DHT22;5987;53.140;8.904;2024-02-15T02:25:59;12.40;99.90
11855;DHT22;5987;53.140;8.904;2024-02-15T02:29:03;12.40;99.90
11855;DHT22;5987;53.140;8.904;2024-02-15T02:32:07;12.40;99.90
11855;DHT22;5987;53.140;8.904;2024-02-15T02:35:11;12.40;99.90
11855;DHT22;5987;53.140;8.904;2024-02-15T02:38:15;12.40;99.90
11855;DHT22;5987;53.140;8.904;2024-02-15T02:41:20;12.40;99.90
11855;DHT22;5987;53.140;8.904;2024-02-15T02:44:25;12.40;99.90
11855;DHT22;5987;53.140;8.904;2024-02-15T02:47:29;12.50;99.90
11855;DHT22;5987;53.140;8.904;2024-02-15T02:50:33;12.50;99.90
11855;DHT22;5987;53.140;8.904;2024-02-15T02:53:37;12.50;99.90
11855;DHT22;5987;53.140;8.904;2024-02-15T02:56:42;12.50;99.90
11855;DHT22;5987;53.140;8.904;2024-02-15T02:59:47;12.50;99.90
11855;DHT22;5987;53.140;8.904;2024-02-15T03:02:51;12.60;99.90
11855;DHT22;5987;53.140;8.904;2024-02-15T03:05:59;12.60;99.90
11855;DHT22;5987;53.140;8.904;2024-02-15T03:09:04;12.50;99.90
11855;DHT22;5987;53.140;8.904;2024-02-15T03:12:11;12.60;99.90
11855;DHT22;5987;53.140;8.904;2024-02-15T03:15:31;12.50;99.90
11855;DHT22;5987;53.140;8.904;2024-02-15T03:18:36;12.50;99.90
11855;DHT22;5987;53.140;8.904;2024-02-15T03:21:40;12.50;99.90
11855;DHT22;5987;53.140;8.904;2024-02-15T03:24:48;12.50;99.90
11855;DHT22;5987;53.140;8.904;2024-02-15T03:27:55;12.60;99.90
11855;DHT22;5987;53.140;8.904;2024-02-15T03:30:59;12.60;99.90
11855;DHT22;5987;53.140;8.904;2024-02-15T03:34:03;12.50;99.90
11855;DHT22;5987;53.140;8.904;2024-02-15T03:37:08;12.60;99.90
11855;DHT22;5987;53.140;8.904;2024-02-15T03:40:12;12.60;99.90
11855;DHT22;5987;53.140;8.904;2024-02-15T03:43:17;12.50;99.90
11855;DHT22;5987;53.140;8.904;2024-02-15T03:46:21;12.50;99.90
11855;DHT22;5987;53.140;8.904;2024-02-15T03:49:25;12.60;99.90
11855;DHT22;5987;53.140;8.904;2024-02-15T03:52:30;12.50;99.90
11855;DHT22;5987;53.140;8.904;2024-02-15T03:55:34;12.60;99.90
11855;DHT22;5987;53.140;8.904;2024-02-15T03:58:39;12.50;99.90
11855;DHT22;5987;53.140;8.904;2024-02-15T04:01:43;12.50;99.90
11855;DHT22;5987;53.140;8.904;2024-02-15T04:04:49;12.50;99.90
11855;DHT22;5987;53.140;8.904;2024-02-15T04:07:55;12.50;99.90
11855;DHT22;5987;53.140;8.904;2024-02-15T04:10:58;12.50;99.90
11855;DHT22;5987;53.140;8.904;2024-02-15T04:14:03;12.50;99.90
11855;DHT22;5987;53.140;8.904;2024-02-15T04:17:07;12.50;99.90
11855;DHT22;5987;53.140;8.904;2024-02-15T04:20:11;12.50;99.90
11855;DHT22;5987;53.140;8.904;2024-02-15T04:23:17;12.50;99.90
11855;DHT22;5987;53.140;8.904;2024-02-15T04:26:21;12.50;99.90
11855;DHT22;5987;53.140;8.904;2024-02-15T04:29:30;12.40;99.90
11855;DHT22;5987;53.140;8.904;2024-02-15T04:32:34;12.40;99.90
11855;DHT22;5987;53.140;8.904;2024-02-15T04:35:39;12.40;99.90
11855;DHT22;5987;53.140;8.904;2024-02-15T04:38:42;12.50;99.90
11855;DHT22;5987;53.140;8.904;2024-02-15T04:41:47;12.50;99.90
11855;DHT22;5987;53.140;8.904;2024-02-15T04:44:52;12.40;99.90
11855;DHT22;5987;53.140;8.904;2024-02-15T04:47:56;12.50;99.90
11855;DHT22;5987;53.140;8.904;2024-02-15T04:51:04;12.50;99.90
11855;DHT22;5987;53.140;8.904;2024-02-15T04:54:08;12.50;99.90
11855;DHT22;5987;53.140;8.904;2024-02-15T04:57:15;12.50;99.90
11855;DHT22;5987;53.140;8.904;2024-02-15T05:00:22;12.40;99.90
11855;DHT22;5987;53.140;8.904;2024-02-15T05:03:28;12.50;99.90
11855;DHT22;5987;53.140;8.904;2024-02-15T05:06:31;12.50;99.90
11855;DHT22;5987;53.140;8.904;2024-02-15T05:09:36;12.50;99.90
11855;DHT22;5987;53.140;8.904;2024-02-15T05:12:40;12.50;99.90
11855;DHT22;5987;53.140;8.904;2024-02-15T05:15:46;12.50;99.90
11855;DHT22;5987;53.140;8.904;2024-02-15T05:18:50;12.50;99.90
11855;DHT22;5987;53.140;8.904;2024-02-15T05:21:53;12.50;99.90
11855;DHT22;5987;53.140;8.904;2024-02-15T05:24:57;12.60;99.90
11855;DHT22;5987;53.140;8.904;2024-02-15T05:28:01;12.50;99.90
11855;DHT22;5987;53.140;8.904;2024-02-15T05:31:11;12.50;99.90
11855;DHT22;5987;53.140;8.904;2024-02-15T05:34:19;12.50;99.90
11855;DHT22;5987;53.140;8.904;2024-02-15T05:37:22;12.40;99.90
11855;DHT22;5987;53.140;8.904;2024-02-15T05:40:26;12.40;99.90
11855;DHT22;5987;53.140;8.904;2024-02-15T05:43:30;12.30;99.90
11855;DHT22;5987;53.140;8.904;2024-02-15T05:46:40;12.40;99.90
11855;DHT22;5987;53.140;8.904;2024-02-15T05:49:43;12.30;99.90
11855;DHT22;5987;53.140;8.904;2024-02-15T05:52:49;12.30;99.90
11855;DHT22;5987;53.140;8.904;2024-02-15T05:55:55;12.30;99.90
11855;DHT22;5987;53.140;8.904;2024-02-15T05:58:59;12.30;99.90
11855;DHT22;5987;53.140;8.904;2024-02-15T06:02:06;12.40;99.90
11855;DHT22;5987;53.140;8.904;2024-02-15T06:05:10;12.40;99.90
11855;DHT22;5987;53.140;8.904;2024-02-15T06:08:14;12.30;99.90
11855;DHT22;5987;53.140;8.904;2024-02-15T06:11:19;12.40;99.90
11855;DHT22;5987;53.140;8.904;2024-02-15T06:14:23;12.30;99.90
11855;DHT22;5987;53.140;8.904;2024-02-15T06:17:31;12.30;99.90
11855;DHT22;5987;53.140;8.904;2024-02-15T06:20:35;12.40;99.90
11855;DHT22;5987;53.140;8.904;2024-02-15T06:23:41;12.40;99.90
11855;DHT22;5987;53.140;8.904;2024-02-15T06:26:45;12.40;99.90
11855;DHT22;5987;53.140;8.904;2024-02-15T06:29:51;12.40;99.90
11855;DHT22;5987;53.140;8.904;2024-02-15T06:33:13;12.30;99.90
11855;DHT22;5987;53.140;8.904;2024-02-15T06:36:39;12.30;99.90
11855;DHT22;5987;53.140;8.904;2024-02-15T06:40:01;12.30;99.90
11855;DHT22;5987;53.140;8.904;2024-02-15T06:43:05;12.30;99.90
11855;DHT22;5987;53.140;8.904;2024-02-15T06:46:10;12.30;99.90
11855;DHT22;5987;53.140;8.904;2024-02-15T06:49:16;12.30;99.90
11855;DHT22;5987;53.140;8.904;2024-02-15T06:52:20;12.30;99.90
11855;DHT22;5987;53.140;8.904;2024-02-15T06:55:24;12.30;99.90
11855;DHT22;5987;53.140;8.904;2024-02-15T06:58:28;12.30;99.90
11855;DHT22;5987;53.140;8.904;2024-02-15T07:01:32;12.30;99.90
11855;DHT22;5987;53.140;8.904;2024-02-15T07:04:40;12.30;99.90
11855;DHT22;5987;53.140;8.904;2024-02-15T07:07:44;12.30;99.90
11855;DHT22;5987;53.140;8.904;2024-02-15T07:10:48;12.30;99.90
11855;DHT22;5987;53.140;8.904;2024-02-15T07:13:52;12.30;99.90
11855;DHT22;5987;53.140;8.904;2024-02-15T07:16:57;12.30;99.90
11855;DHT22;5987;53.140;8.904;2024-02-15T07:20:02;12.40;99.90
11855;DHT22;5987;53.140;8.904;2024-02-15T07:23:07;12.40;99.90
11855;DHT22;5987;53.140;8.904;2024-02-15T07:26:11;12.40;99.90
11855;DHT22;5987;53.140;8.904;2024-02-15T07:29:16;12.40;99.90
11855;DHT22;5987;53.140;8.904;2024-02-15T07:32:20;12.40;99.90
11855;DHT22;5987;53.140;8.904;2024-02-15T07:35:25;12.40;99.90
11855;DHT22;5987;53.140;8.904;2024-02-15T07:38:31;12.50;99.90
11855;DHT22;5987;53.140;8.904;2024-02-15T07:41:37;12.50;99.90
11855;DHT22;5987;53.140;8.904;2024-02-15T07:44:41;12.50;99.90
11855;DHT22;5987;53.140;8.904;2024-02-15T07:47:45;12.50;99.90
11855;DHT22;5987;53.140;8.904;2024-02-15T07:50:52;12.60;99.90
11855;DHT22;5987;53.140;8.904;2024-02-15T07:53:56;12.60;99.90
11855;DHT22;5987;53.140;8.904;2024-02-15T07:57:00;12.60;99.90
11855;DHT22;5987;53.140;8.904;2024-02-15T08:00:05;12.60;99.90
11855;DHT22;5987;53.140;8.904;2024-02-15T08:03:13;12.60;99.90
11855;DHT22;5987;53.140;8.904;2024-02-15T08:06:18;12.70;99.90
11855;DHT22;5987;53.140;8.904;2024-02-15T08:09:27;12.80;99.90
11855;DHT22;5987;53.140;8.904;2024-02-15T08:12:31;12.80;99.90
11855;DHT22;5987;53.140;8.904;2024-02-15T08:15:35;12.80;99.90
11855;DHT22;5987;53.140;8.904;2024-02-15T08:18:40;12.80;99.90
11855;DHT22;5987;53.140;8.904;2024-02-15T08:21:47;12.80;99.90
11855;DHT22;5987;53.140;8.904;2024-02-15T08:24:55;12.80;99.90
11855;DHT22;5987;53.140;8.904;2024-02-15T08:27:58;12.80;99.90
11855;DHT22;5987;53.140;8.904;2024-02-15T08:31:07;12.90;99.90
11855;DHT22;5987;53.140;8.904;2024-02-15T08:34:11;13.00;99.90
11855;DHT22;5987;53.140;8.904;2024-02-15T08:37:18;13.00;99.90
11855;DHT22;5987;53.140;8.904;2024-02-15T08:40:22;13.00;99.90
11855;DHT22;5987;53.140;8.904;2024-02-15T08:43:28;13.00;99.90
11855;DHT22;5987;53.140;8.904;2024-02-15T08:46:31;12.90;99.90
11855;DHT22;5987;53.140;8.904;2024-02-15T08:49:35;12.90;99.90
11855;DHT22;5987;53.140;8.904;2024-02-15T08:52:42;12.90;99.90
11855;DHT22;5987;53.140;8.904;2024-02-15T08:55:47;13.00;99.90
11855;DHT22;5987;53.140;8.904;2024-02-15T08:58:51;12.90;99.90
11855;DHT22;5987;53.140;8.904;2024-02-15T09:02:15;13.00;99.90
11855;DHT22;5987;53.140;8.904;2024-02-15T09:05:39;13.00;99.90
11855;DHT22;5987;53.140;8.904;2024-02-15T09:09:05;13.00;99.90
11855;DHT22;5987;53.140;8.904;2024-02-15T09:12:09;13.00;99.90
11855;DHT22;5987;53.140;8.904;2024-02-15T09:15:17;13.00;99.90
11855;DHT22;5987;53.140;8.904;2024-02-15T09:18:21;13.00;99.90
11855;DHT22;5987;53.140;8.904;2024-02-15T09:21:25;13.00;99.90
11855;DHT22;5987;53.140;8.904;2024-02-15T09:24:32;13.10;99.90
11855;DHT22;5987;53.140;8.904;2024-02-15T09:27:36;13.20;99.90
11855;DHT22;5987;53.140;8.904;2024-02-15T09:30:40;13.20;99.90
11855;DHT22;5987;53.140;8.904;2024-02-15T09:33:43;13.20;99.90
11855;DHT22;5987;53.140;8.904;2024-02-15T09:36:48;13.30;99.90
11855;DHT22;5987;53.140;8.904;2024-02-15T09:39:53;13.30;99.90
11855;DHT22;5987;53.140;8.904;2024-02-15T09:42:57;13.40;99.90
11855;DHT22;5987;53.140;8.904;2024-02-15T09:46:02;13.20;99.90
11855;DHT22;5987;53.140;8.904;2024-02-15T09:49:06;13.20;99.90
11855;DHT22;5987;53.140;8.904;2024-02-15T09:52:10;13.30;99.90
11855;DHT22;5987;53.140;8.904;2024-02-15T09:55:20;13.20;99.90
11855;DHT22;5987;53.140;8.904;2024-02-15T09:58:26;13.20;99.90
11855;DHT22;5987;53.140;8.904;2024-02-15T10:01:34;13.20;99.90
11855;DHT22;5987;53.140;8.904;2024-02-15T10:04:42;13.20;99.90
11855;DHT22;5987;53.140;8.904;2024-02-15T10:07:52;13.10;99.90
11855;DHT22;5987;53.140;8.904;2024-02-15T10:11:07;13.00;99.90
11855;DHT22;5987;53.140;8.904;2024-02-15T10:14:12;13.10;99.90
11855;DHT22;5987;53.140;8.904;2024-02-15T10:17:19;13.10;99.90
11855;DHT22;5987;53.140;8.904;2024-02-15T10:20:23;13.10;99.90
11855;DHT22;5987;53.140;8.904;2024-02-15T10:23:27;13.10;99.90
11855;DHT22;5987;53.140;8.904;2024-02-15T10:26:33;13.10;99.90
11855;DHT22;5987;53.140;8.904;2024-02-15T10:29:37;13.10;99.90
11855;DHT22;5987;53.140;8.904;2024-02-15T10:32:43;13.00;99.90
11855;DHT22;5987;53.140;8.904;2024-02-15T10:35:47;13.00;99.90
11855;DHT22;5987;53.140;8.904;2024-02-15T10:38:51;13.00;99.90
11855;DHT22;5987;53.140;8.904;2024-02-15T10:41:58;13.00;99.90
11855;DHT22;5987;53.140;8.904;2024-02-15T10:45:03;12.90;99.90
11855;DHT22;5987;53.140;8.904;2024-02-15T10:48:14;12.90;99.90
11855;DHT22;5987;53.140;8.904;2024-02-15T10:51:18;13.00;99.90
11855;DHT22;5987;53.140;8.904;2024-02-15T10:54:46;13.00;99.90
11855;DHT22;5987;53.140;8.904;2024-02-15T10:57:57;13.10;99.90
11855;DHT22;5987;53.140;8.904;2024-02-15T11:01:06;13.00;99.90
11855;DHT22;5987;53.140;8.904;2024-02-15T11:04:20;13.00;99.90
11855;DHT22;5987;53.140;8.904;2024-02-15T11:07:25;13.10;99.90
11855;DHT22;5987;53.140;8.904;2024-02-15T11:10:34;13.10;99.90
11855;DHT22;5987;53.140;8.904;2024-02-15T11:13:41;13.10;99.90
11855;DHT22;5987;53.140;8.904;2024-02-15T11:16:45;13.00;99.90
11855;DHT22;5987;53.140;8.904;2024-02-15T11:19:53;13.10;99.90
11855;DHT22;5987;53.140;8.904;2024-02-15T11:22:58;13.10;99.90
11855;DHT22;5987;53.140;8.904;2024-02-15T11:26:04;13.00;99.90
11855;DHT22;5987;53.140;8.904;2024-02-15T11:29:49;13.00;99.90
11855;DHT22;5987;53.140;8.904;2024-02-15T11:32:55;13.00;99.90
11855;DHT22;5987;53.140;8.904;2024-02-15T11:36:03;13.00;99.90
11855;DHT22;5987;53.140;8.904;2024-02-15T11:39:41;13.00;99.90
11855;DHT22;5987;53.140;8.904;2024-02-15T11:42:46;13.00;99.90
11855;DHT22;5987;53.140;8.904;2024-02-15T11:45:57;13.00;99.90
11855;DHT22;5987;53.140;8.904;2024-02-15T11:49:01;12.90;99.90
11855;DHT22;5987;53.140;8.904;2024-02-15T11:52:09;12.90;99.90
11855;DHT22;5987;53.140;8.904;2024-02-15T11:55:14;12.90;99.90
11855;DHT22;5987;53.140;8.904;2024-02-15T11:58:21;13.00;99.90
11855;DHT22;5987;53.140;8.904;2024-02-15T12:01:34;12.90;99.90
11855;DHT22;5987;53.140;8.904;2024-02-15T12:04:55;13.00;99.90
11855;DHT22;5987;53.140;8.904;2024-02-15T12:08:16;12.90;99.90
11855;DHT22;5987;53.140;8.904;2024-02-15T12:11:38;13.00;99.90
11855;DHT22;5987;53.140;8.904;2024-02-15T12:15:00;13.20;99.90
11855;DHT22;5987;53.140;8.904;2024-02-15T12:18:23;13.10;99.90
11855;DHT22;5987;53.140;8.904;2024-02-15T12:21:45;13.20;99.90
11855;DHT22;5987;53.140;8.904;2024-02-15T12:24:59;13.20;99.90
11855;DHT22;5987;53.140;8.904;2024-02-15T12:28:08;13.20;99.90
11855;DHT22;5987;53.140;8.904;2024-02-15T12:31:12;13.20;99.90
11855;DHT22;5987;53.140;8.904;2024-02-15T12:34:20;13.30;99.90
11855;DHT22;5987;53.140;8.904;2024-02-15T12:37:24;13.40;99.90
11855;DHT22;5987;53.140;8.904;2024-02-15T12:40:31;13.40;99.90
11855;DHT22;5987;53.140;8.904;2024-02-15T12:43:36;13.50;99.90
11855;DHT22;5987;53.140;8.904;2024-02-15T12:46:40;13.50;99.90
11855;DHT22;5987;53.140;8.904;2024-02-15T12:49:45;13.50;99.90
11855;DHT22;5987;53.140;8.904;2024-02-15T12:52:50;13.50;99.90
11855;DHT22;5987;53.140;8.904;2024-02-15T12:55:56;13.50;99.90
11855;DHT22;5987;53.140;8.904;2024-02-15T12:58:59;13.50;99.90
11855;DHT22;5987;53.140;8.904;2024-02-15T13:02:08;13.50;99.90
11855;DHT22;5987;53.140;8.904;2024-02-15T13:05:18;13.40;99.90
11855;DHT22;5987;53.140;8.904;2024-02-15T13:08:24;13.50;99.90
11855;DHT22;5987;53.140;8.904;2024-02-15T13:11:28;13.30;99.90
11855;DHT22;5987;53.140;8.904;2024-02-15T13:14:32;13.30;99.90
11855;DHT22;5987;53.140;8.904;2024-02-15T13:17:38;13.30;99.90
11855;DHT22;5987;53.140;8.904;2024-02-15T13:20:43;13.30;99.90
11855;DHT22;5987;53.140;8.904;2024-02-15T13:23:50;13.40;99.90
11855;DHT22;5987;53.140;8.904;2024-02-15T13:26:54;13.30;99.90
11855;DHT22;5987;53.140;8.904;2024-02-15T13:30:01;13.30;99.90
11855;DHT22;5987;53.140;8.904;2024-02-15T13:33:05;13.20;99.90
11855;DHT22;5987;53.140;8.904;2024-02-15T13:36:10;13.20;99.90
11855;DHT22;5987;53.140;8.904;2024-02-15T13:39:15;13.40;99.90
11855;DHT22;5987;53.140;8.904;2024-02-15T13:42:21;13.40;99.90
11855;DHT22;5987;53.140;8.904;2024-02-15T13:45:31;13.40;99.90
11855;DHT22;5987;53.140;8.904;2024-02-15T13:48:41;13.40;99.90
11855;DHT22;5987;53.140;8.904;2024-02-15T13:51:47;13.40;99.90
11855;DHT22;5987;53.140;8.904;2024-02-15T13:54:54;13.30;99.90
11855;DHT22;5987;53.140;8.904;2024-02-15T13:57:58;13.40;99.90
11855;DHT22;5987;53.140;8.904;2024-02-15T14:01:02;13.50;99.90
11855;DHT22;5987;53.140;8.904;2024-02-15T14:04:06;13.50;99.90
11855;DHT22;5987;53.140;8.904;2024-02-15T14:07:13;13.50;99.90
11855;DHT22;5987;53.140;8.904;2024-02-15T14:10:17;13.50;99.90
11855;DHT22;5987;53.140;8.904;2024-02-15T14:13:23;13.50;99.90
11855;DHT22;5987;53.140;8.904;2024-02-15T14:16:27;13.40;99.90
11855;DHT22;5987;53.140;8.904;2024-02-15T14:19:35;13.50;99.90
11855;DHT22;5987;53.140;8.904;2024-02-15T14:22:40;13.50;99.90
11855;DHT22;5987;53.140;8.904;2024-02-15T14:25:46;13.50;99.90
11855;DHT22;5987;53.140;8.904;2024-02-15T14:28:52;13.50;99.90
11855;DHT22;5987;53.140;8.904;2024-02-15T14:31:55;13.50;99.90
11855;DHT22;5987;53.140;8.904;2024-02-15T14:35:16;13.50;99.90
11855;DHT22;5987;53.140;8.904;2024-02-15T14:38:24;13.50;99.90
11855;DHT22;5987;53.140;8.904;2024-02-15T14:41:29;13.40;99.90
11855;DHT22;5987;53.140;8.904;2024-02-15T14:44:35;13.50;99.90
11855;DHT22;5987;53.140;8.904;2024-02-15T14:47:38;13.50;99.90
11855;DHT22;5987;53.140;8.904;2024-02-15T14:50:44;13.50;99.90
11855;DHT22;5987;53.140;8.904;2024-02-15T14:53:49;13.60;99.90
11855;DHT22;5987;53.140;8.904;2024-02-15T14:56:53;13.50;99.90
11855;DHT22;5987;53.140;8.904;2024-02-15T14:59:57;13.50;99.90
11855;DHT22;5987;53.140;8.904;2024-02-15T15:03:01;13.40;99.90
11855;DHT22;5987;53.140;8.904;2024-02-15T15:06:07;13.40;99.90
11855;DHT22;5987;53.140;8.904;2024-02-15T15:09:31;13.50;99.90
11855;DHT22;5987;53.140;8.904;2024-02-15T15:12:54;13.40;99.90
11855;DHT22;5987;53.140;8.904;2024-02-15T15:15:59;13.30;99.90
11855;DHT22;5987;53.140;8.904;2024-02-15T15:19:03;13.30;99.90
11855;DHT22;5987;53.140;8.904;2024-02-15T15:22:06;13.30;99.90
11855;DHT22;5987;53.140;8.904;2024-02-15T15:25:12;13.30;99.90
11855;DHT22;5987;53.140;8.904;2024-02-15T15:28:15;13.30;99.90
11855;DHT22;5987;53.140;8.904;2024-02-15T15:31:20;13.30;99.90
11855;DHT22;5987;53.140;8.904;2024-02-15T15:34:24;13.30;99.90
11855;DHT22;5987;53.140;8.904;2024-02-15T15:37:28;13.30;99.90
11855;DHT22;5987;53.140;8.904;2024-02-15T15:40:34;13.40;99.90
11855;DHT22;5987;53.140;8.904;2024-02-15T15:43:38;13.30;99.90
11855;DHT22;5987;53.140;8.904;2024-02-15T15:46:42;13.40;99.90
11855;DHT22;5987;53.140;8.904;2024-02-15T15:49:46;13.40;99.90
11855;DHT22;5987;53.140;8.904;2024-02-15T15:52:50;13.40;99.90
11855;DHT22;5987;53.140;8.904;2024-02-15T15:55:57;13.30;99.90
11855;DHT22;5987;53.140;8.904;2024-02-15T15:59:02;13.30;99.90
11855;DHT22;5987;53.140;8.904;2024-02-15T16:02:08;13.30;99.90
11855;DHT22;5987;53.140;8.904;2024-02-15T16:05:12;13.30;99.90
11855;DHT22;5987;53.140;8.904;2024-02-15T16:08:17;13.40;99.90
11855;DHT22;5987;53.140;8.904;2024-02-15T16:11:22;13.30;99.90
11855;DHT22;5987;53.140;8.904;2024-02-15T16:14:26;13.40;99.90
11855;DHT22;5987;53.140;8.904;2024-02-15T16:17:29;13.30;99.90
11855;DHT22;5987;53.140;8.904;2024-02-15T16:20:34;13.40;99.90
11855;DHT22;5987;53.140;8.904;2024-02-15T16:23:38;13.30;99.90
11855;DHT22;5987;53.140;8.904;2024-02-15T16:26:44;13.40;99.90
11855;DHT22;5987;53.140;8.904;2024-02-15T16:29:48;13.30;99.90
11855;DHT22;5987;53.140;8.904;2024-02-15T16:32:53;13.20;99.90
11855;DHT22;5987;53.140;8.904;2024-02-15T16:35:57;13.10;99.90
11855;DHT22;5987;53.140;8.904;2024-02-15T16:39:01;13.20;99.90
11855;DHT22;5987;53.140;8.904;2024-02-15T16:42:06;13.20;99.90
11855;DHT22;5987;53.140;8.904;2024-02-15T16:45:10;13.20;99.90
11855;DHT22;5987;53.140;8.904;2024-02-15T16:48:14;13.10;99.90
11855;DHT22;5987;53.140;8.904;2024-02-15T16:51:18;13.00;99.90
11855;DHT22;5987;53.140;8.904;2024-02-15T16:54:24;12.90;99.90
11855;DHT22;5987;53.140;8.904;2024-02-15T16:57:30;12.90;99.90
11855;DHT22;5987;53.140;8.904;2024-02-15T17:00:34;13.00;99.90
11855;DHT22;5987;53.140;8.904;2024-02-15T17:03:38;12.90;99.90
11855;DHT22;5987;53.140;8.904;2024-02-15T17:06:41;12.90;99.90
11855;DHT22;5987;53.140;8.904;2024-02-15T17:09:45;12.90;99.90
11855;DHT22;5987;53.140;8.904;2024-02-15T17:12:51;12.90;99.90
11855;DHT22;5987;53.140;8.904;2024-02-15T17:15:56;13.00;99.90
11855;DHT22;5987;53.140;8.904;2024-02-15T17:18:59;12.90;99.90
11855;DHT22;5987;53.140;8.904;2024-02-15T17:22:04;12.80;99.90
11855;DHT22;5987;53.140;8.904;2024-02-15T17:25:08;12.80;99.90
11855;DHT22;5987;53.140;8.904;2024-02-15T17:28:15;12.80;99.90
11855;DHT22;5987;53.140;8.904;2024-02-15T17:31:20;12.80;99.90
11855;DHT22;5987;53.140;8.904;2024-02-15T17:34:26;12.90;99.90
11855;DHT22;5987;53.140;8.904;2024-02-15T17:37:33;12.80;99.90
11855;DHT22;5987;53.140;8.904;2024-02-15T17:40:37;13.00;99.90
11855;DHT22;5987;53.140;8.904;2024-02-15T17:43:42;13.10;99.90
11855;DHT22;5987;53.140;8.904;2024-02-15T17:46:46;13.10;99.90
11855;DHT22;5987;53.140;8.904;2024-02-15T17:49:50;13.10;99.90
11855;DHT22;5987;53.140;8.904;2024-02-15T17:52:55;13.10;99.90
11855;DHT22;5987;53.140;8.904;2024-02-15T17:55:59;13.10;99.90
11855;DHT22;5987;53.140;8.904;2024-02-15T17:59:04;13.00;99.90
11855;DHT22;5987;53.140;8.904;2024-02-15T18:02:12;12.90;99.90
11855;DHT22;5987;53.140;8.904;2024-02-15T18:05:17;12.90;99.90
11855;DHT22;5987;53.140;8.904;2024-02-15T18:08:22;12.90;99.90
11855;DHT22;5987;53.140;8.904;2024-02-15T18:11:27;12.90;99.90
11855;DHT22;5987;53.140;8.904;2024-02-15T18:14:33;12.90;99.90
11855;DHT22;5987;53.140;8.904;2024-02-15T18:17:36;12.80;99.90
11855;DHT22;5987;53.140;8.904;2024-02-15T18:20:43;12.80;99.90
11855;DHT22;5987;53.140;8.904;2024-02-15T18:23:47;12.80;99.90
11855;DHT22;5987;53.140;8.904;2024-02-15T18:26:50;12.70;99.90
11855;DHT22;5987;53.140;8.904;2024-02-15T18:29:58;12.60;99.90
11855;DHT22;5987;53.140;8.904;2024-02-15T18:33:02;12.60;99.90
11855;DHT22;5987;53.140;8.904;2024-02-15T18:36:06;12.80;99.90
11855;DHT22;5987;53.140;8.904;2024-02-15T18:39:11;12.80;99.90
11855;DHT22;5987;53.140;8.904;2024-02-15T18:42:15;12.80;99.90
11855;DHT22;5987;53.140;8.904;2024-02-15T18:45:20;12.80;99.90
11855;DHT22;5987;53.140;8.904;2024-02-15T18:48:24;12.90;99.90
11855;DHT22;5987;53.140;8.904;2024-02-15T18:51:29;12.90;99.90
11855;DHT22;5987;53.140;8.904;2024-02-15T18:54:33;12.90;99.90
11855;DHT22;5987;53.140;8.904;2024-02-15T18:57:37;12.90;99.90
11855;DHT22;5987;53.140;8.904;2024-02-15T19:00:42;12.90;99.90
11855;DHT22;5987;53.140;8.904;2024-02-15T19:03:59;12.90;99.90
11855;DHT22;5987;53.140;8.904;2024-02-15T19:07:03;12.90;99.90
11855;DHT22;5987;53.140;8.904;2024-02-15T19:10:07;12.90;99.90
11855;DHT22;5987;53.140;8.904;2024-02-15T19:13:11;12.90;99.90
11855;DHT22;5987;53.140;8.904;2024-02-15T19:16:20;12.80;99.90
11855;DHT22;5987;53.140;8.904;2024-02-15T19:19:26;12.60;99.90
11855;DHT22;5987;53.140;8.904;2024-02-15T19:22:30;12.50;99.90
11855;DHT22;5987;53.140;8.904;2024-02-15T19:25:34;12.40;99.90
11855;DHT22;5987;53.140;8.904;2024-02-15T19:28:38;12.40;99.90
11855;DHT22;5987;53.140;8.904;2024-02-15T19:31:43;12.40;99.90
11855;DHT22;5987;53.140;8.904;2024-02-15T19:34:47;12.40;99.90
11855;DHT22;5987;53.140;8.904;2024-02-15T19:37:52;12.30;99.90
11855;DHT22;5987;53.140;8.904;2024-02-15T19:40:56;12.40;99.90
11855;DHT22;5987;53.140;8.904;2024-02-15T19:44:00;12.40;99.90
11855;DHT22;5987;53.140;8.904;2024-02-15T19:47:07;12.50;99.90
11855;DHT22;5987;53.140;8.904;2024-02-15T19:50:10;12.50;99.90
11855;DHT22;5987;53.140;8.904;2024-02-15T19:53:17;12.60;99.90